DLH442 EDDF-ENGM
Flight info
| Callsign | DLH442 |
|---|---|
| Flight time | 1h 40m |
| Altitude | 39000 |
| Route | MARUN7F/25C MARUN Y150 TOLGI DCT ALASA DCT INVOL DCT SABAK/N0492F380 L997 LUNIP |
| Aircraft | B789/H-SDE1E2E3FGHIJ2J3J4J5M1RWXY/LB1D1 |
Departure
| Time | 2026-05-04 13:04 |
|---|---|
| Airport | Frankfurt Main Airport (EDDF) |
Arrival
| Time | 2026-05-04 14:45 |
|---|---|
| Airport | Oslo-Gardermoen International Airport (ENGM) |
| Time | Latitude | Longitude | Altitude | Speed | Heading |
|---|---|---|---|---|---|
| 2026-05-04 12:14 | 50.04775 | 8.56496 | 361 ft | 0 kts | 339° |
| 2026-05-04 12:44 | 50.04765 | 8.56503 | 368 ft | 4 kts | 339° |
| 2026-05-04 12:44 | 50.04741 | 8.56518 | 365 ft | 4 kts | 328° |
| 2026-05-04 12:45 | 50.04723 | 8.56541 | 365 ft | 4 kts | 295° |
| 2026-05-04 12:45 | 50.04720 | 8.56570 | 366 ft | 4 kts | 249° |
| 2026-05-04 12:45 | 50.04729 | 8.56593 | 365 ft | 0 kts | 226° |
| 2026-05-04 12:49 | 50.04733 | 8.56600 | 367 ft | 1 kts | 226° |
| 2026-05-04 12:49 | 50.04738 | 8.56609 | 365 ft | 0 kts | 226° |
| 2026-05-04 12:50 | 50.04719 | 8.56576 | 367 ft | 9 kts | 226° |
| 2026-05-04 12:50 | 50.04700 | 8.56544 | 369 ft | 3 kts | 227° |
| 2026-05-04 12:50 | 50.04666 | 8.56485 | 368 ft | 11 kts | 230° |
| 2026-05-04 12:50 | 50.04626 | 8.56347 | 365 ft | 17 kts | 250° |
| 2026-05-04 12:51 | 50.04583 | 8.56166 | 367 ft | 19 kts | 250° |
| 2026-05-04 12:51 | 50.04528 | 8.55995 | 366 ft | 13 kts | 210° |
| 2026-05-04 12:51 | 50.04440 | 8.55951 | 366 ft | 14 kts | 197° |
| 2026-05-04 12:51 | 50.04348 | 8.55925 | 366 ft | 13 kts | 165° |
| 2026-05-04 12:52 | 50.04322 | 8.55943 | 363 ft | 3 kts | 155° |
| 2026-05-04 12:52 | 50.04289 | 8.55966 | 364 ft | 7 kts | 158° |
| 2026-05-04 12:52 | 50.04242 | 8.55957 | 364 ft | 6 kts | 219° |
| 2026-05-04 12:52 | 50.04202 | 8.55916 | 366 ft | 7 kts | 183° |
| 2026-05-04 12:53 | 50.04143 | 8.55946 | 365 ft | 10 kts | 160° |
| 2026-05-04 12:53 | 50.04077 | 8.56007 | 361 ft | 10 kts | 116° |
| 2026-05-04 12:53 | 50.04090 | 8.56120 | 361 ft | 13 kts | 69° |
| 2026-05-04 12:53 | 50.04130 | 8.56284 | 361 ft | 19 kts | 70° |
| 2026-05-04 12:54 | 50.04180 | 8.56501 | 367 ft | 23 kts | 69° |
| 2026-05-04 12:54 | 50.04242 | 8.56759 | 369 ft | 27 kts | 70° |
| 2026-05-04 12:54 | 50.04312 | 8.57054 | 371 ft | 31 kts | 69° |
| 2026-05-04 12:54 | 50.04393 | 8.57389 | 371 ft | 35 kts | 69° |
| 2026-05-04 12:55 | 50.04478 | 8.57742 | 373 ft | 34 kts | 70° |
| 2026-05-04 12:55 | 50.04559 | 8.58087 | 371 ft | 34 kts | 70° |
| 2026-05-04 12:55 | 50.04638 | 8.58415 | 376 ft | 29 kts | 70° |
| 2026-05-04 12:55 | 50.04663 | 8.58541 | 376 ft | 6 kts | 95° |
| 2026-05-04 12:56 | 50.04648 | 8.58566 | 380 ft | 3 kts | 156° |
| 2026-05-04 12:56 | 50.04618 | 8.58575 | 375 ft | 6 kts | 162° |
| 2026-05-04 12:56 | 50.04610 | 8.58579 | 376 ft | 0 kts | 162° |
| 2026-05-04 12:56 | 50.04609 | 8.58580 | 376 ft | 0 kts | 162° |
| 2026-05-04 13:01 | 50.04605 | 8.58582 | 377 ft | 1 kts | 162° |
| 2026-05-04 13:01 | 50.04583 | 8.58593 | 375 ft | 5 kts | 161° |
| 2026-05-04 13:02 | 50.04548 | 8.58612 | 377 ft | 9 kts | 163° |
| 2026-05-04 13:02 | 50.04486 | 8.58569 | 376 ft | 12 kts | 243° |
| 2026-05-04 13:02 | 50.04458 | 8.58469 | 376 ft | 0 kts | 249° |
| 2026-05-04 13:03 | 50.04457 | 8.58465 | 376 ft | 3 kts | 249° |
| 2026-05-04 13:04 | 50.04401 | 8.58228 | 375 ft | 60 kts | 250° |
| 2026-05-04 13:04 | 50.04149 | 8.57176 | 375 ft | 144 kts | 250° |
| 2026-05-04 13:04 | 50.03788 | 8.55527 | 925 ft | 163 kts | 252° |
| 2026-05-04 13:04 | 50.03423 | 8.53871 | 1739 ft | 170 kts | 251° |
| 2026-05-04 13:05 | 50.03000 | 8.52090 | 2411 ft | 184 kts | 248° |
| 2026-05-04 13:05 | 50.02652 | 8.50059 | 2883 ft | 209 kts | 269° |
| 2026-05-04 13:05 | 50.02835 | 8.47719 | 3602 ft | 222 kts | 280° |
| 2026-05-04 13:05 | 50.03090 | 8.45347 | 4602 ft | 224 kts | 278° |
| 2026-05-04 13:06 | 50.03353 | 8.42940 | 5513 ft | 229 kts | 287° |
| 2026-05-04 13:06 | 50.04306 | 8.40924 | 6188 ft | 244 kts | 318° |
| 2026-05-04 13:06 | 50.05709 | 8.39202 | 6663 ft | 268 kts | 324° |
| 2026-05-04 13:06 | 50.07222 | 8.37525 | 7824 ft | 267 kts | 324° |
| 2026-05-04 13:07 | 50.08726 | 8.35767 | 8820 ft | 273 kts | 322° |
| 2026-05-04 13:07 | 50.10245 | 8.33961 | 9824 ft | 277 kts | 326° |
| 2026-05-04 13:07 | 50.12051 | 8.32969 | 10729 ft | 281 kts | 354° |
| 2026-05-04 13:07 | 50.14059 | 8.33272 | 11074 ft | 306 kts | 16° |
| 2026-05-04 13:08 | 50.16185 | 8.34313 | 11425 ft | 333 kts | 19° |
| 2026-05-04 13:08 | 50.18466 | 8.35501 | 11856 ft | 353 kts | 18° |
| 2026-05-04 13:08 | 50.20817 | 8.36618 | 12846 ft | 355 kts | 16° |
| 2026-05-04 13:08 | 50.23207 | 8.37710 | 13690 ft | 361 kts | 17° |
| 2026-05-04 13:09 | 50.25626 | 8.38847 | 14539 ft | 365 kts | 17° |
| 2026-05-04 13:09 | 50.28070 | 8.40021 | 15349 ft | 371 kts | 17° |
| 2026-05-04 13:09 | 50.30512 | 8.41374 | 16115 ft | 374 kts | 21° |
| 2026-05-04 13:09 | 50.32990 | 8.42713 | 16857 ft | 379 kts | 17° |
| 2026-05-04 13:10 | 50.35516 | 8.43968 | 17606 ft | 382 kts | 18° |
| 2026-05-04 13:10 | 50.37928 | 8.45273 | 18268 ft | 386 kts | 20° |
| 2026-05-04 13:10 | 50.40470 | 8.46714 | 18952 ft | 391 kts | 20° |
| 2026-05-04 13:10 | 50.43048 | 8.48139 | 19624 ft | 394 kts | 19° |
| 2026-05-04 13:11 | 50.45655 | 8.49545 | 20265 ft | 398 kts | 19° |
| 2026-05-04 13:11 | 50.48302 | 8.50887 | 20846 ft | 402 kts | 15° |
| 2026-05-04 13:11 | 50.50996 | 8.52132 | 21395 ft | 405 kts | 18° |
| 2026-05-04 13:11 | 50.53688 | 8.53513 | 21956 ft | 409 kts | 18° |
| 2026-05-04 13:12 | 50.56411 | 8.54845 | 22509 ft | 412 kts | 17° |
| 2026-05-04 13:12 | 50.59170 | 8.56127 | 23047 ft | 415 kts | 17° |
| 2026-05-04 13:12 | 50.61946 | 8.57440 | 23518 ft | 418 kts | 17° |
| 2026-05-04 13:12 | 50.64734 | 8.58797 | 24010 ft | 421 kts | 17° |
| 2026-05-04 13:13 | 50.67548 | 8.60163 | 24475 ft | 424 kts | 17° |
| 2026-05-04 13:13 | 50.70389 | 8.61526 | 24930 ft | 427 kts | 17° |
| 2026-05-04 13:13 | 50.73242 | 8.62896 | 25340 ft | 430 kts | 17° |
| 2026-05-04 13:13 | 50.76114 | 8.64285 | 25778 ft | 433 kts | 17° |
| 2026-05-04 13:14 | 50.78996 | 8.65714 | 26183 ft | 435 kts | 20° |
| 2026-05-04 13:14 | 50.81737 | 8.67772 | 26494 ft | 438 kts | 29° |
| 2026-05-04 13:14 | 50.84220 | 8.70566 | 26893 ft | 440 kts | 43° |
| 2026-05-04 13:14 | 50.86227 | 8.74207 | 27246 ft | 442 kts | 54° |
| 2026-05-04 13:15 | 50.87925 | 8.78296 | 27600 ft | 445 kts | 58° |
| 2026-05-04 13:15 | 50.89535 | 8.82483 | 27938 ft | 447 kts | 58° |
| 2026-05-04 13:15 | 50.91263 | 8.86609 | 28282 ft | 450 kts | 53° |
| 2026-05-04 13:15 | 50.93187 | 8.90453 | 28585 ft | 452 kts | 50° |
| 2026-05-04 13:16 | 50.95186 | 8.94308 | 28908 ft | 454 kts | 52° |
| 2026-05-04 13:16 | 50.97089 | 8.98336 | 29230 ft | 456 kts | 54° |
| 2026-05-04 13:16 | 50.98950 | 9.02433 | 29518 ft | 459 kts | 53° |
| 2026-05-04 13:16 | 51.00874 | 9.06498 | 29809 ft | 461 kts | 52° |
| 2026-05-04 13:17 | 51.02837 | 9.10545 | 30074 ft | 465 kts | 52° |
| 2026-05-04 13:17 | 51.04790 | 9.14653 | 30421 ft | 466 kts | 53° |
| 2026-05-04 13:17 | 51.06722 | 9.18791 | 30732 ft | 467 kts | 53° |
| 2026-05-04 13:17 | 51.08730 | 9.22858 | 30972 ft | 469 kts | 46° |
| 2026-05-04 13:18 | 51.11197 | 9.26249 | 31258 ft | 470 kts | 34° |
| 2026-05-04 13:18 | 51.14063 | 9.28751 | 31515 ft | 471 kts | 21° |
| 2026-05-04 13:18 | 51.17201 | 9.30261 | 31741 ft | 473 kts | 12° |
| 2026-05-04 13:18 | 51.20425 | 9.31399 | 31930 ft | 475 kts | 12° |
| 2026-05-04 13:19 | 51.23666 | 9.32506 | 32169 ft | 478 kts | 12° |
| 2026-05-04 13:19 | 51.26925 | 9.33617 | 32379 ft | 480 kts | 12° |
| 2026-05-04 13:19 | 51.30106 | 9.34728 | 32667 ft | 480 kts | 12° |
| 2026-05-04 13:19 | 51.33373 | 9.35875 | 32958 ft | 481 kts | 12° |
| 2026-05-04 13:20 | 51.36636 | 9.37009 | 33351 ft | 479 kts | 12° |
| 2026-05-04 13:20 | 51.39887 | 9.38135 | 33703 ft | 477 kts | 12° |
| 2026-05-04 13:20 | 51.43133 | 9.39268 | 34023 ft | 476 kts | 12° |
| 2026-05-04 13:20 | 51.46364 | 9.40401 | 34348 ft | 475 kts | 12° |
| 2026-05-04 13:21 | 51.49599 | 9.41535 | 34661 ft | 474 kts | 12° |
| 2026-05-04 13:21 | 51.52803 | 9.42656 | 34974 ft | 473 kts | 12° |
| 2026-05-04 13:21 | 51.56019 | 9.43785 | 35272 ft | 473 kts | 12° |
| 2026-05-04 13:21 | 51.59231 | 9.44916 | 35554 ft | 472 kts | 12° |
| 2026-05-04 13:22 | 51.62438 | 9.46045 | 35840 ft | 471 kts | 12° |
| 2026-05-04 13:22 | 51.65637 | 9.47173 | 36108 ft | 470 kts | 12° |
| 2026-05-04 13:22 | 51.68837 | 9.48303 | 36327 ft | 471 kts | 12° |
| 2026-05-04 13:22 | 51.72036 | 9.49434 | 36548 ft | 472 kts | 12° |
| 2026-05-04 13:23 | 51.75244 | 9.50571 | 36780 ft | 472 kts | 12° |
| 2026-05-04 13:23 | 51.78389 | 9.51686 | 37024 ft | 472 kts | 12° |
| 2026-05-04 13:23 | 51.81597 | 9.52825 | 37256 ft | 472 kts | 12° |
| 2026-05-04 13:23 | 51.84838 | 9.53588 | 37471 ft | 471 kts | 5° |
| 2026-05-04 13:24 | 51.88105 | 9.54023 | 37679 ft | 471 kts | 4° |
| 2026-05-04 13:24 | 51.91371 | 9.54429 | 37905 ft | 470 kts | 5° |
| 2026-05-04 13:24 | 51.94590 | 9.54858 | 38077 ft | 471 kts | 5° |
| 2026-05-04 13:25 | 52.01119 | 9.55764 | 38538 ft | 470 kts | 5° |
| 2026-05-04 13:25 | 52.04375 | 9.56196 | 38726 ft | 470 kts | 5° |
| 2026-05-04 13:25 | 52.07640 | 9.56634 | 38905 ft | 471 kts | 5° |
| 2026-05-04 13:25 | 52.10909 | 9.57081 | 38993 ft | 473 kts | 5° |
| 2026-05-04 13:26 | 52.17480 | 9.57977 | 38994 ft | 472 kts | 5° |
| 2026-05-04 13:26 | 52.24001 | 9.58865 | 38993 ft | 470 kts | 5° |
| 2026-05-04 13:27 | 52.30511 | 9.59758 | 38998 ft | 469 kts | 5° |
| 2026-05-04 13:27 | 52.37008 | 9.60649 | 38992 ft | 468 kts | 5° |
| 2026-05-04 13:28 | 52.43495 | 9.61543 | 38994 ft | 467 kts | 5° |
| 2026-05-04 13:28 | 52.49983 | 9.62438 | 38995 ft | 469 kts | 5° |
| 2026-05-04 13:29 | 52.56493 | 9.63340 | 38994 ft | 470 kts | 5° |
| 2026-05-04 13:29 | 52.63022 | 9.64247 | 39004 ft | 470 kts | 5° |
| 2026-05-04 13:30 | 52.69532 | 9.65154 | 38999 ft | 468 kts | 5° |
| 2026-05-04 13:30 | 52.76065 | 9.66067 | 39003 ft | 471 kts | 5° |
| 2026-05-04 13:31 | 52.82547 | 9.66976 | 39004 ft | 469 kts | 5° |
| 2026-05-04 13:31 | 52.89055 | 9.67891 | 38994 ft | 469 kts | 5° |
| 2026-05-04 13:32 | 52.95566 | 9.68809 | 39001 ft | 470 kts | 5° |
| 2026-05-04 13:32 | 53.02083 | 9.69731 | 39002 ft | 470 kts | 5° |
| 2026-05-04 13:33 | 53.08608 | 9.70657 | 38999 ft | 471 kts | 5° |
| 2026-05-04 13:33 | 53.15142 | 9.71587 | 39004 ft | 471 kts | 5° |
| 2026-05-04 13:34 | 53.21666 | 9.72518 | 39009 ft | 469 kts | 5° |
| 2026-05-04 13:34 | 53.28164 | 9.73448 | 38999 ft | 468 kts | 5° |
| 2026-05-04 13:35 | 53.37883 | 9.74845 | 39002 ft | 468 kts | 5° |
| 2026-05-04 13:36 | 53.44391 | 9.75784 | 39002 ft | 470 kts | 5° |
| 2026-05-04 13:36 | 53.50909 | 9.76728 | 39003 ft | 471 kts | 5° |
| 2026-05-04 13:37 | 53.57431 | 9.77674 | 39009 ft | 469 kts | 5° |
| 2026-05-04 13:37 | 53.63928 | 9.78620 | 38998 ft | 469 kts | 5° |
| 2026-05-04 13:38 | 53.70437 | 9.79571 | 38996 ft | 469 kts | 5° |
| 2026-05-04 13:38 | 53.76899 | 9.80518 | 39001 ft | 469 kts | 5° |
| 2026-05-04 13:39 | 53.83449 | 9.81481 | 39005 ft | 470 kts | 5° |
| 2026-05-04 13:39 | 53.89880 | 9.82429 | 39005 ft | 470 kts | 5° |
| 2026-05-04 13:40 | 53.96390 | 9.83392 | 39008 ft | 470 kts | 5° |
| 2026-05-04 13:40 | 54.02916 | 9.84360 | 39000 ft | 471 kts | 5° |
| 2026-05-04 13:41 | 54.09401 | 9.85326 | 39011 ft | 471 kts | 5° |
| 2026-05-04 13:41 | 54.15931 | 9.86301 | 39010 ft | 470 kts | 5° |
| 2026-05-04 13:42 | 54.25678 | 9.87762 | 39009 ft | 468 kts | 5° |
| 2026-05-04 13:42 | 54.32164 | 9.88737 | 38997 ft | 468 kts | 5° |
| 2026-05-04 13:43 | 54.38661 | 9.89718 | 39004 ft | 468 kts | 5° |
| 2026-05-04 13:43 | 54.45154 | 9.90702 | 39003 ft | 468 kts | 5° |
| 2026-05-04 13:44 | 54.51608 | 9.91683 | 38995 ft | 468 kts | 5° |
| 2026-05-04 13:44 | 54.58104 | 9.92673 | 38995 ft | 467 kts | 5° |
| 2026-05-04 13:45 | 54.64568 | 9.93661 | 39003 ft | 468 kts | 5° |
| 2026-05-04 13:45 | 54.71067 | 9.94658 | 39006 ft | 469 kts | 5° |
| 2026-05-04 13:46 | 54.76481 | 9.95491 | 39006 ft | 470 kts | 5° |
| 2026-05-04 13:46 | 54.82948 | 9.96991 | 39011 ft | 469 kts | 13° |
| 2026-05-04 13:47 | 54.89300 | 9.99645 | 39000 ft | 469 kts | 13° |
| 2026-05-04 13:47 | 54.95649 | 10.02250 | 39006 ft | 468 kts | 13° |
| 2026-05-04 13:48 | 55.01981 | 10.04875 | 39003 ft | 467 kts | 13° |
| 2026-05-04 13:48 | 55.08309 | 10.07504 | 38996 ft | 468 kts | 13° |
| 2026-05-04 13:49 | 55.14643 | 10.10142 | 38998 ft | 468 kts | 13° |
| 2026-05-04 13:49 | 55.20966 | 10.12787 | 39002 ft | 467 kts | 13° |
| 2026-05-04 13:50 | 55.27253 | 10.15422 | 39003 ft | 468 kts | 13° |
| 2026-05-04 13:50 | 55.33602 | 10.18095 | 39003 ft | 470 kts | 13° |
| 2026-05-04 13:51 | 55.39969 | 10.20782 | 39013 ft | 471 kts | 13° |
| 2026-05-04 13:51 | 55.46325 | 10.23475 | 39007 ft | 469 kts | 13° |
| 2026-05-04 13:52 | 55.55846 | 10.27525 | 39008 ft | 469 kts | 13° |
| 2026-05-04 13:53 | 55.62195 | 10.30236 | 39007 ft | 469 kts | 13° |
| 2026-05-04 13:53 | 55.68539 | 10.32955 | 39006 ft | 468 kts | 13° |
| 2026-05-04 13:54 | 55.78032 | 10.37040 | 39006 ft | 467 kts | 13° |
| 2026-05-04 13:55 | 55.87506 | 10.41138 | 39011 ft | 467 kts | 13° |
| 2026-05-04 13:55 | 55.96966 | 10.45249 | 39001 ft | 466 kts | 14° |
| 2026-05-04 13:56 | 56.03228 | 10.47982 | 38998 ft | 466 kts | 14° |
| 2026-05-04 13:57 | 56.12682 | 10.52127 | 38997 ft | 467 kts | 14° |
| 2026-05-04 13:58 | 56.25310 | 10.57694 | 39000 ft | 468 kts | 14° |
| 2026-05-04 13:58 | 56.34811 | 10.61909 | 39005 ft | 469 kts | 14° |
| 2026-05-04 13:59 | 56.41150 | 10.64732 | 39014 ft | 469 kts | 14° |
| 2026-05-04 14:00 | 56.50671 | 10.68992 | 39011 ft | 470 kts | 14° |
| 2026-05-04 14:00 | 56.60179 | 10.73268 | 39018 ft | 469 kts | 14° |
| 2026-05-04 14:01 | 56.66508 | 10.76126 | 39003 ft | 468 kts | 14° |
| 2026-05-04 14:02 | 56.75987 | 10.80425 | 39001 ft | 467 kts | 14° |
| 2026-05-04 14:02 | 56.82255 | 10.83281 | 39000 ft | 467 kts | 14° |
| 2026-05-04 14:03 | 56.88551 | 10.86159 | 38998 ft | 466 kts | 14° |
| 2026-05-04 14:03 | 56.94858 | 10.89052 | 39007 ft | 468 kts | 14° |
| 2026-05-04 14:04 | 57.04350 | 10.93425 | 39017 ft | 470 kts | 14° |
| 2026-05-04 14:04 | 57.10691 | 10.96360 | 39019 ft | 469 kts | 14° |
| 2026-05-04 14:05 | 57.20213 | 11.00341 | 39021 ft | 467 kts | 5° |
| 2026-05-04 14:06 | 57.26721 | 11.00975 | 39005 ft | 468 kts | 3° |
| 2026-05-04 14:06 | 57.29931 | 11.01449 | 38991 ft | 456 kts | 6° |
| 2026-05-04 14:06 | 57.33042 | 11.02054 | 38975 ft | 443 kts | 5° |
| 2026-05-04 14:06 | 57.36075 | 11.02539 | 38942 ft | 432 kts | 4° |
| 2026-05-04 14:07 | 57.39036 | 11.02923 | 38854 ft | 422 kts | 4° |
| 2026-05-04 14:07 | 57.42018 | 11.03345 | 37444 ft | 442 kts | 5° |
| 2026-05-04 14:07 | 57.45176 | 11.03859 | 36057 ft | 465 kts | 5° |
| 2026-05-04 14:07 | 57.48402 | 11.04373 | 35348 ft | 465 kts | 5° |
| 2026-05-04 14:08 | 57.51592 | 11.04845 | 34606 ft | 467 kts | 4° |
| 2026-05-04 14:08 | 57.54797 | 11.05320 | 34360 ft | 458 kts | 5° |
| 2026-05-04 14:08 | 57.58013 | 11.05817 | 34134 ft | 457 kts | 5° |
| 2026-05-04 14:08 | 57.61127 | 11.06303 | 33907 ft | 452 kts | 5° |
| 2026-05-04 14:09 | 57.67355 | 11.07255 | 33418 ft | 447 kts | 5° |
| 2026-05-04 14:09 | 57.70449 | 11.07732 | 33186 ft | 445 kts | 5° |
| 2026-05-04 14:10 | 57.76606 | 11.08686 | 32678 ft | 442 kts | 5° |
| 2026-05-04 14:10 | 57.79663 | 11.09158 | 32433 ft | 441 kts | 5° |
| 2026-05-04 14:10 | 57.82725 | 11.09633 | 32181 ft | 440 kts | 5° |
| 2026-05-04 14:10 | 57.85761 | 11.10106 | 31930 ft | 438 kts | 5° |
| 2026-05-04 14:11 | 57.88794 | 11.10578 | 31687 ft | 435 kts | 5° |
| 2026-05-04 14:11 | 57.94805 | 11.11516 | 31188 ft | 431 kts | 5° |
| 2026-05-04 14:11 | 57.97791 | 11.11984 | 30934 ft | 430 kts | 5° |
| 2026-05-04 14:12 | 58.00764 | 11.12450 | 30688 ft | 428 kts | 5° |
| 2026-05-04 14:12 | 58.03727 | 11.12915 | 30438 ft | 426 kts | 5° |
| 2026-05-04 14:12 | 58.09619 | 11.13842 | 29939 ft | 423 kts | 5° |
| 2026-05-04 14:13 | 58.12547 | 11.14304 | 29694 ft | 421 kts | 5° |
| 2026-05-04 14:13 | 58.15464 | 11.14766 | 29440 ft | 420 kts | 5° |
| 2026-05-04 14:13 | 58.18366 | 11.15225 | 29186 ft | 418 kts | 5° |
| 2026-05-04 14:13 | 58.21262 | 11.15684 | 28941 ft | 417 kts | 5° |
| 2026-05-04 14:14 | 58.24146 | 11.16143 | 28699 ft | 415 kts | 5° |
| 2026-05-04 14:14 | 58.29844 | 11.17049 | 28196 ft | 412 kts | 5° |
| 2026-05-04 14:14 | 58.32697 | 11.17505 | 27947 ft | 411 kts | 5° |
| 2026-05-04 14:15 | 58.38369 | 11.18413 | 27444 ft | 407 kts | 5° |
| 2026-05-04 14:15 | 58.43995 | 11.19316 | 26949 ft | 404 kts | 5° |
| 2026-05-04 14:16 | 58.49586 | 11.20216 | 26451 ft | 402 kts | 5° |
| 2026-05-04 14:16 | 58.52368 | 11.20665 | 26201 ft | 400 kts | 5° |
| 2026-05-04 14:17 | 58.57902 | 11.21560 | 25703 ft | 398 kts | 5° |
| 2026-05-04 14:17 | 58.60653 | 11.22007 | 25453 ft | 396 kts | 5° |
| 2026-05-04 14:17 | 58.66129 | 11.22897 | 24995 ft | 392 kts | 5° |
| 2026-05-04 14:18 | 58.68822 | 11.23336 | 25000 ft | 389 kts | 5° |
| 2026-05-04 14:18 | 58.74262 | 11.24224 | 25011 ft | 393 kts | 5° |
| 2026-05-04 14:19 | 58.79711 | 11.25117 | 25001 ft | 394 kts | 5° |
| 2026-05-04 14:19 | 58.82440 | 11.25565 | 24990 ft | 392 kts | 5° |
| 2026-05-04 14:19 | 58.85158 | 11.26012 | 24614 ft | 393 kts | 5° |
| 2026-05-04 14:19 | 58.87876 | 11.26460 | 24337 ft | 391 kts | 5° |
| 2026-05-04 14:20 | 58.90578 | 11.26906 | 24044 ft | 389 kts | 5° |
| 2026-05-04 14:20 | 58.93254 | 11.27349 | 24002 ft | 383 kts | 5° |
| 2026-05-04 14:20 | 58.95920 | 11.27790 | 24006 ft | 387 kts | 5° |
| 2026-05-04 14:21 | 59.01297 | 11.28682 | 24012 ft | 387 kts | 5° |
| 2026-05-04 14:21 | 59.03983 | 11.29128 | 24010 ft | 387 kts | 5° |
| 2026-05-04 14:21 | 59.06672 | 11.29576 | 24011 ft | 388 kts | 5° |
| 2026-05-04 14:21 | 59.09326 | 11.30019 | 24010 ft | 388 kts | 5° |
| 2026-05-04 14:22 | 59.12032 | 11.30472 | 24003 ft | 378 kts | 5° |
| 2026-05-04 14:22 | 59.14553 | 11.30894 | 23979 ft | 360 kts | 5° |
| 2026-05-04 14:22 | 59.16993 | 11.31302 | 23855 ft | 346 kts | 5° |
| 2026-05-04 14:22 | 59.19348 | 11.32136 | 23304 ft | 345 kts | 19° |
| 2026-05-04 14:23 | 59.23886 | 11.35010 | 22360 ft | 340 kts | 18° |
| 2026-05-04 14:23 | 59.26131 | 11.36413 | 21891 ft | 338 kts | 18° |
| 2026-05-04 14:23 | 59.28364 | 11.37820 | 21421 ft | 335 kts | 18° |
| 2026-05-04 14:24 | 59.30575 | 11.39217 | 20969 ft | 333 kts | 18° |
| 2026-05-04 14:24 | 59.32765 | 11.40598 | 20509 ft | 330 kts | 18° |
| 2026-05-04 14:24 | 59.34944 | 11.41974 | 20042 ft | 328 kts | 18° |
| 2026-05-04 14:24 | 59.37107 | 11.43342 | 19574 ft | 325 kts | 18° |
| 2026-05-04 14:25 | 59.39254 | 11.44703 | 19103 ft | 323 kts | 18° |
| 2026-05-04 14:25 | 59.43502 | 11.47397 | 18161 ft | 319 kts | 18° |
| 2026-05-04 14:25 | 59.45607 | 11.48719 | 17678 ft | 317 kts | 18° |
| 2026-05-04 14:26 | 59.47697 | 11.50034 | 17202 ft | 314 kts | 18° |
| 2026-05-04 14:26 | 59.49772 | 11.51344 | 16737 ft | 312 kts | 18° |
| 2026-05-04 14:26 | 59.51828 | 11.52647 | 16239 ft | 310 kts | 18° |
| 2026-05-04 14:26 | 59.53876 | 11.53945 | 15765 ft | 307 kts | 18° |
| 2026-05-04 14:27 | 59.55904 | 11.55231 | 15288 ft | 305 kts | 18° |
| 2026-05-04 14:27 | 59.57918 | 11.56509 | 14807 ft | 303 kts | 18° |
| 2026-05-04 14:27 | 59.59916 | 11.57779 | 14325 ft | 300 kts | 18° |
| 2026-05-04 14:27 | 59.61900 | 11.59042 | 13840 ft | 298 kts | 18° |
| 2026-05-04 14:28 | 59.63868 | 11.60296 | 13350 ft | 296 kts | 18° |
| 2026-05-04 14:28 | 59.65823 | 11.61544 | 12854 ft | 294 kts | 18° |
| 2026-05-04 14:28 | 59.67766 | 11.62786 | 12362 ft | 292 kts | 18° |
| 2026-05-04 14:28 | 59.69694 | 11.64019 | 11873 ft | 290 kts | 18° |
| 2026-05-04 14:29 | 59.73484 | 11.66448 | 10899 ft | 286 kts | 18° |
| 2026-05-04 14:29 | 59.77226 | 11.68852 | 10153 ft | 272 kts | 18° |
| 2026-05-04 14:30 | 59.79014 | 11.70002 | 9703 ft | 270 kts | 18° |
| 2026-05-04 14:30 | 59.80795 | 11.71149 | 9302 ft | 266 kts | 18° |
| 2026-05-04 14:30 | 59.84290 | 11.73405 | 9293 ft | 267 kts | 18° |
| 2026-05-04 14:31 | 59.86059 | 11.74548 | 9296 ft | 267 kts | 18° |
| 2026-05-04 14:31 | 59.89606 | 11.76845 | 9301 ft | 269 kts | 18° |
| 2026-05-04 14:32 | 59.93167 | 11.79156 | 9301 ft | 269 kts | 18° |
| 2026-05-04 14:32 | 59.94946 | 11.80313 | 9300 ft | 269 kts | 18° |
| 2026-05-04 14:32 | 59.96721 | 11.81473 | 9300 ft | 268 kts | 18° |
| 2026-05-04 14:32 | 59.98498 | 11.82635 | 9299 ft | 268 kts | 18° |
| 2026-05-04 14:33 | 60.00264 | 11.83790 | 9298 ft | 267 kts | 18° |
| 2026-05-04 14:33 | 60.02085 | 11.84479 | 9294 ft | 268 kts | 5° |
| 2026-05-04 14:33 | 60.03946 | 11.84651 | 9291 ft | 267 kts | 356° |
| 2026-05-04 14:33 | 60.05719 | 11.83591 | 9294 ft | 268 kts | 337° |
| 2026-05-04 14:34 | 60.07434 | 11.82093 | 9300 ft | 269 kts | 335° |
| 2026-05-04 14:34 | 60.09139 | 11.80535 | 9299 ft | 269 kts | 335° |
| 2026-05-04 14:34 | 60.10264 | 11.79497 | 9301 ft | 269 kts | 335° |
| 2026-05-04 14:34 | 60.12532 | 11.77398 | 9300 ft | 269 kts | 335° |
| 2026-05-04 14:35 | 60.14205 | 11.75847 | 9301 ft | 268 kts | 335° |
| 2026-05-04 14:35 | 60.15879 | 11.74293 | 9283 ft | 260 kts | 335° |
| 2026-05-04 14:35 | 60.17517 | 11.72771 | 9284 ft | 262 kts | 335° |
| 2026-05-04 14:35 | 60.18411 | 11.71940 | 9283 ft | 262 kts | 335° |
| 2026-05-04 14:36 | 60.20513 | 11.69983 | 9282 ft | 262 kts | 335° |
| 2026-05-04 14:36 | 60.22148 | 11.68462 | 9283 ft | 262 kts | 335° |
| 2026-05-04 14:36 | 60.23807 | 11.66919 | 9284 ft | 263 kts | 335° |
| 2026-05-04 14:36 | 60.25466 | 11.65372 | 9277 ft | 260 kts | 335° |
| 2026-05-04 14:37 | 60.27099 | 11.63849 | 8752 ft | 261 kts | 335° |
| 2026-05-04 14:37 | 60.28744 | 11.62312 | 8339 ft | 259 kts | 335° |
| 2026-05-04 14:37 | 60.30376 | 11.60787 | 7971 ft | 258 kts | 335° |
| 2026-05-04 14:37 | 60.31998 | 11.59270 | 7578 ft | 256 kts | 335° |
| 2026-05-04 14:38 | 60.33510 | 11.57453 | 7266 ft | 252 kts | 310° |
| 2026-05-04 14:38 | 60.34325 | 11.54380 | 7282 ft | 249 kts | 291° |
| 2026-05-04 14:38 | 60.34914 | 11.51081 | 6959 ft | 248 kts | 289° |
| 2026-05-04 14:38 | 60.35494 | 11.47842 | 6662 ft | 244 kts | 291° |
| 2026-05-04 14:39 | 60.36109 | 11.44659 | 6343 ft | 242 kts | 291° |
| 2026-05-04 14:39 | 60.36719 | 11.41543 | 6065 ft | 235 kts | 291° |
| 2026-05-04 14:39 | 60.37310 | 11.38473 | 5777 ft | 234 kts | 291° |
| 2026-05-04 14:40 | 60.38478 | 11.32368 | 5181 ft | 232 kts | 291° |
| 2026-05-04 14:40 | 60.39047 | 11.29341 | 4936 ft | 230 kts | 288° |
| 2026-05-04 14:40 | 60.39116 | 11.26159 | 4630 ft | 230 kts | 255° |
| 2026-05-04 14:40 | 60.38318 | 11.23450 | 4341 ft | 224 kts | 220° |
| 2026-05-04 14:41 | 60.36963 | 11.22094 | 4083 ft | 214 kts | 199° |
| 2026-05-04 14:41 | 60.35565 | 11.21234 | 3809 ft | 206 kts | 196° |
| 2026-05-04 14:41 | 60.33035 | 11.19767 | 3294 ft | 174 kts | 195° |
| 2026-05-04 14:42 | 60.30737 | 11.18519 | 2758 ft | 173 kts | 194° |
| 2026-05-04 14:42 | 60.29603 | 11.17928 | 2573 ft | 164 kts | 194° |
| 2026-05-04 14:42 | 60.28526 | 11.17305 | 2358 ft | 158 kts | 197° |
| 2026-05-04 14:43 | 60.27475 | 11.16682 | 2031 ft | 157 kts | 196° |
| 2026-05-04 14:43 | 60.26800 | 11.16259 | 1869 ft | 150 kts | 197° |
| 2026-05-04 14:43 | 60.25833 | 11.15618 | 1693 ft | 145 kts | 198° |
| 2026-05-04 14:43 | 60.24539 | 11.14809 | 1481 ft | 146 kts | 197° |
| 2026-05-04 14:44 | 60.23896 | 11.14454 | 1428 ft | 143 kts | 195° |
| 2026-05-04 14:44 | 60.22941 | 11.13917 | 1304 ft | 144 kts | 196° |
| 2026-05-04 14:44 | 60.21961 | 11.13349 | 1147 ft | 149 kts | 196° |
| 2026-05-04 14:44 | 60.20949 | 11.12743 | 941 ft | 153 kts | 197° |
| 2026-05-04 14:45 | 60.19936 | 11.12142 | 745 ft | 149 kts | 196° |
| 2026-05-04 14:45 | 60.19068 | 11.11645 | 685 ft | 85 kts | 196° |
| 2026-05-04 14:45 | 60.18685 | 11.11421 | 684 ft | 35 kts | 196° |
| 2026-05-04 14:45 | 60.18581 | 11.11347 | 680 ft | 1 kts | 204° |
| 2026-05-04 14:46 | 60.18538 | 11.11307 | 682 ft | 15 kts | 206° |
| 2026-05-04 14:46 | 60.18435 | 11.11100 | 686 ft | 22 kts | 259° |
| 2026-05-04 14:46 | 60.18475 | 11.10784 | 680 ft | 16 kts | 298° |
| 2026-05-04 14:46 | 60.18538 | 11.10765 | 683 ft | 11 kts | 17° |
| 2026-05-04 14:47 | 60.18645 | 11.10833 | 687 ft | 21 kts | 18° |
| 2026-05-04 14:47 | 60.18815 | 11.10931 | 683 ft | 30 kts | 15° |
| 2026-05-04 14:47 | 60.19027 | 11.11052 | 684 ft | 32 kts | 16° |
| 2026-05-04 14:47 | 60.19245 | 11.11179 | 690 ft | 33 kts | 15° |
| 2026-05-04 14:48 | 60.19408 | 11.11270 | 684 ft | 17 kts | 14° |
| 2026-05-04 14:48 | 60.19477 | 11.11294 | 683 ft | 4 kts | 340° |
| 2026-05-04 14:48 | 60.19491 | 11.11247 | 681 ft | 6 kts | 289° |
| 2026-05-04 14:48 | 60.19516 | 11.11090 | 686 ft | 17 kts | 287° |
| 2026-05-04 14:49 | 60.19551 | 11.10829 | 683 ft | 17 kts | 286° |
| 2026-05-04 14:49 | 60.19585 | 11.10590 | 685 ft | 16 kts | 286° |
| 2026-05-04 14:49 | 60.19609 | 11.10425 | 683 ft | 6 kts | 286° |
| 2026-05-04 14:49 | 60.19616 | 11.10376 | 686 ft | 3 kts | 286° |
| 2026-05-04 14:50 | 60.19627 | 11.10300 | 685 ft | 7 kts | 286° |
| 2026-05-04 14:50 | 60.19633 | 11.10258 | 685 ft | 2 kts | 286° |
| 2026-05-04 14:50 | 60.19637 | 11.10229 | 684 ft | 1 kts | 286° |
| 2026-05-04 14:50 | 60.19639 | 11.10214 | 684 ft | 1 kts | 286° |
| 2026-05-04 14:51 | 60.19641 | 11.10203 | 683 ft | 0 kts | 286° |